createdAt,value
2023-01-28T00:02:03.446Z,22.80
2023-01-28T00:04:32.684Z,19.73
2023-01-28T00:07:01.813Z,19.00
2023-01-28T00:09:31.086Z,19.40
2023-01-28T00:12:00.604Z,19.73
2023-01-28T00:14:30.325Z,18.27
2023-01-28T00:16:59.486Z,18.23
2023-01-28T00:19:30.195Z,17.53
2023-01-28T00:21:59.415Z,18.10
2023-01-28T00:24:28.681Z,18.63
2023-01-28T00:26:58.191Z,18.20
2023-01-28T00:29:27.447Z,17.83
2023-01-28T00:31:56.797Z,18.50
2023-01-28T00:34:26.052Z,17.73
2023-01-28T00:36:58.816Z,18.60
2023-01-28T00:39:28.884Z,18.07
2023-01-28T00:41:58.055Z,19.03
2023-01-28T00:44:27.560Z,19.30
2023-01-28T00:46:56.904Z,18.93
2023-01-28T00:49:26.833Z,19.47
2023-01-28T00:51:57.483Z,19.27
2023-01-28T00:54:26.824Z,20.80
2023-01-28T00:56:56.067Z,19.97
2023-01-28T00:59:25.445Z,20.13
2023-01-28T01:01:54.722Z,19.70
2023-01-28T01:04:35.659Z,19.73
2023-01-28T01:07:07.145Z,19.20
2023-01-28T01:09:36.383Z,24.20
2023-01-28T01:12:05.853Z,22.50
2023-01-28T01:14:35.202Z,20.67
2023-01-28T01:17:04.403Z,19.30
2023-01-28T01:19:33.653Z,19.83
2023-01-28T01:22:02.908Z,19.63
2023-01-28T01:24:34.351Z,20.97
2023-01-28T01:27:03.645Z,19.50
2023-01-28T01:29:34.114Z,20.37
2023-01-28T01:32:03.390Z,18.23
2023-01-28T01:34:32.754Z,19.57
2023-01-28T01:37:01.983Z,19.47
2023-01-28T01:39:32.753Z,19.67
2023-01-28T01:42:02.323Z,19.03
2023-01-28T01:44:58.313Z,19.57
2023-01-28T01:47:33.663Z,19.63
2023-01-28T01:50:06.902Z,19.10
2023-01-28T01:52:37.942Z,18.23
2023-01-28T01:55:14.990Z,20.17
2023-01-28T01:57:46.044Z,19.53
2023-01-28T02:00:15.753Z,21.13
2023-01-28T02:02:49.319Z,18.57
2023-01-28T02:05:21.564Z,20.23
2023-01-28T02:08:16.503Z,19.93
2023-01-28T02:10:50.640Z,19.53
2023-01-28T02:13:27.825Z,20.30
2023-01-28T02:15:57.712Z,19.33
2023-01-28T02:18:27.057Z,19.50
2023-01-28T02:21:17.011Z,18.83
2023-01-28T02:24:10.483Z,17.57
2023-01-28T02:26:59.103Z,18.87
2023-01-28T02:29:34.597Z,19.00
2023-01-28T02:32:10.682Z,19.50
2023-01-28T02:34:46.261Z,18.07
2023-01-28T02:37:19.333Z,18.30
2023-01-28T02:39:52.887Z,18.73
2023-01-28T02:42:29.045Z,18.10
2023-01-28T02:44:59.903Z,18.60
2023-01-28T02:47:46.509Z,18.47
2023-01-28T02:50:18.773Z,19.33
2023-01-28T02:53:15.549Z,19.73
2023-01-28T02:55:54.006Z,18.17
2023-01-28T02:58:33.891Z,18.50
2023-01-28T03:01:12.595Z,18.17
2023-01-28T03:03:52.083Z,17.73
2023-01-28T03:06:26.081Z,18.27
2023-01-28T03:09:15.263Z,16.37
2023-01-28T03:12:05.023Z,17.67
2023-01-28T03:14:54.437Z,17.50
2023-01-28T03:17:47.656Z,16.80
2023-01-28T03:20:35.132Z,16.73
2023-01-28T03:23:29.001Z,14.93
2023-01-28T03:26:19.515Z,15.17
2023-01-28T03:29:08.584Z,14.80
2023-01-28T03:31:56.372Z,16.17
2023-01-28T03:34:45.163Z,15.53
2023-01-28T03:37:15.906Z,15.67
2023-01-28T03:40:07.541Z,16.60
2023-01-28T03:42:36.845Z,16.60
2023-01-28T03:45:14.673Z,16.67
2023-01-28T03:47:44.933Z,16.27
2023-01-28T03:50:15.993Z,16.53
2023-01-28T03:52:54.741Z,17.20
2023-01-28T03:55:28.654Z,16.53
2023-01-28T03:57:57.854Z,16.20
2023-01-28T04:00:26.940Z,16.03
2023-01-28T04:02:57.817Z,16.50
2023-01-28T04:05:28.791Z,15.90
2023-01-28T04:08:02.642Z,15.80
2023-01-28T04:10:47.636Z,15.70
2023-01-28T04:13:24.703Z,15.53
2023-01-28T04:15:54.878Z,17.00
2023-01-28T04:18:27.643Z,16.87
2023-01-28T04:21:00.991Z,15.93
2023-01-28T04:23:31.856Z,16.80
2023-01-28T04:26:01.572Z,16.47
2023-01-28T04:28:31.312Z,16.37
2023-01-28T04:31:01.519Z,16.03
2023-01-28T04:33:49.502Z,14.77
2023-01-28T04:36:41.074Z,16.20
2023-01-28T04:39:45.547Z,25.70
2023-01-28T04:42:19.917Z,27.87
2023-01-28T04:45:10.570Z,23.53
2023-01-28T04:48:02.912Z,21.43
2023-01-28T04:50:54.963Z,19.57
2023-01-28T04:53:41.368Z,18.27
2023-01-28T04:56:26.279Z,17.73
2023-01-28T04:58:55.877Z,17.13
2023-01-28T05:01:26.304Z,15.90
2023-01-28T05:03:56.144Z,16.10
2023-01-28T05:06:29.801Z,15.70
2023-01-28T05:09:03.791Z,15.70
2023-01-28T05:11:33.042Z,17.00
2023-01-28T05:14:06.560Z,16.17
2023-01-28T05:16:42.774Z,16.47
2023-01-28T05:19:13.581Z,16.87
2023-01-28T05:21:45.003Z,16.33
2023-01-28T05:24:30.479Z,16.07
2023-01-28T05:26:59.887Z,17.10
2023-01-28T05:29:29.473Z,17.20
2023-01-28T05:31:58.755Z,16.37
2023-01-28T05:34:28.426Z,16.53
2023-01-28T05:36:58.793Z,16.67
2023-01-28T05:39:40.244Z,16.87
2023-01-28T05:42:11.233Z,16.27
2023-01-28T05:44:46.245Z,16.97
2023-01-28T05:47:25.083Z,17.00
2023-01-28T05:50:16.007Z,16.90
2023-01-28T05:52:47.074Z,16.87
2023-01-28T05:55:27.022Z,16.23
2023-01-28T05:57:56.555Z,15.73
2023-01-28T06:00:28.411Z,15.13
2023-01-28T06:02:58.046Z,15.17
2023-01-28T06:05:28.824Z,15.80
2023-01-28T06:07:58.154Z,15.37
2023-01-28T06:10:30.376Z,15.43
2023-01-28T06:12:59.688Z,15.70
2023-01-28T06:15:47.199Z,16.10
2023-01-28T06:18:34.736Z,16.60
2023-01-28T06:21:04.252Z,17.30
2023-01-28T06:23:33.474Z,17.40
2023-01-28T06:26:05.364Z,16.27
2023-01-28T06:28:34.791Z,16.70
2023-01-28T06:31:04.134Z,17.20
2023-01-28T06:33:34.083Z,15.70
2023-01-28T06:36:05.083Z,16.27
2023-01-28T06:38:34.659Z,16.17
2023-01-28T06:41:05.567Z,16.60
2023-01-28T06:43:34.776Z,17.23
2023-01-28T06:46:04.142Z,16.20
2023-01-28T06:48:33.340Z,17.50
2023-01-28T06:51:02.618Z,24.97
2023-01-28T06:53:31.872Z,32.37
2023-01-28T06:56:01.133Z,56.10
2023-01-28T06:58:31.882Z,30.17
2023-01-28T07:01:01.064Z,22.07
2023-01-28T07:03:30.362Z,19.03
2023-01-28T07:05:59.604Z,19.10
2023-01-28T07:08:28.834Z,20.67
2023-01-28T07:10:58.140Z,21.00
2023-01-28T07:13:27.419Z,21.80
2023-01-28T07:15:58.174Z,21.43
2023-01-28T07:18:27.443Z,21.80
2023-01-28T07:20:56.761Z,21.97
2023-01-28T07:23:28.252Z,22.07
2023-01-28T07:26:02.275Z,21.57
2023-01-28T07:28:31.623Z,20.27
2023-01-28T07:31:02.282Z,20.27
2023-01-28T07:33:31.635Z,19.97
2023-01-28T07:36:00.833Z,19.53
2023-01-28T07:38:29.970Z,22.13
2023-01-28T07:40:59.165Z,23.80
2023-01-28T07:43:28.365Z,22.50
2023-01-28T07:45:57.503Z,24.00
2023-01-28T07:48:28.153Z,22.70
2023-01-28T07:51:00.910Z,24.13
2023-01-28T07:53:30.144Z,23.33
2023-01-28T07:56:03.266Z,24.20
2023-01-28T07:58:32.876Z,24.63
2023-01-28T08:01:02.654Z,24.23
2023-01-28T08:03:33.280Z,22.10
2023-01-28T08:06:02.400Z,22.63
2023-01-28T08:08:31.622Z,23.47
2023-01-28T08:11:01.031Z,24.20
2023-01-28T08:13:30.286Z,22.37
2023-01-28T08:15:59.762Z,24.50
2023-01-28T08:18:29.001Z,21.10
2023-01-28T08:21:00.821Z,22.30
2023-01-28T08:23:30.645Z,21.50
2023-01-28T08:26:00.834Z,19.47
2023-01-28T08:28:29.993Z,19.67
2023-01-28T08:31:02.430Z,20.37
2023-01-28T08:33:31.773Z,20.67
2023-01-28T08:36:05.052Z,14.30
2023-01-28T08:38:34.383Z,13.20
2023-01-28T08:41:03.492Z,12.73
2023-01-28T08:43:32.631Z,12.93
2023-01-28T08:46:01.835Z,14.43
2023-01-28T08:48:31.122Z,14.87
2023-01-28T08:51:02.171Z,13.67
2023-01-28T08:53:31.333Z,13.53
2023-01-28T08:56:00.495Z,12.40
2023-01-28T08:58:29.707Z,12.73
2023-01-28T09:00:59.272Z,10.97
2023-01-28T09:03:28.514Z,11.43
2023-01-28T09:06:03.708Z,11.77
2023-01-28T09:08:33.157Z,10.90
2023-01-28T09:11:02.706Z,11.97
2023-01-28T09:13:31.856Z,13.83
2023-01-28T09:16:01.003Z,12.07
2023-01-28T09:18:30.244Z,13.70
2023-01-28T09:20:59.269Z,13.43
2023-01-28T09:23:29.883Z,12.90
2023-01-28T09:26:02.612Z,12.20
2023-01-28T09:28:31.952Z,12.43
2023-01-28T09:31:05.091Z,13.67
2023-01-28T09:33:34.236Z,12.57
2023-01-28T09:36:04.215Z,13.93
2023-01-28T09:38:36.614Z,13.73
2023-01-28T09:41:22.495Z,14.00
2023-01-28T09:44:06.572Z,13.07
2023-01-28T09:46:38.218Z,15.47
2023-01-28T09:49:19.428Z,14.03
2023-01-28T09:51:54.020Z,13.57
2023-01-28T09:54:37.945Z,13.23
2023-01-28T09:57:13.720Z,12.47
2023-01-28T09:59:42.948Z,13.30
2023-01-28T10:02:37.403Z,12.47
2023-01-28T10:05:20.629Z,13.23
2023-01-28T10:07:58.993Z,12.53
2023-01-28T10:10:35.062Z,13.10
2023-01-28T10:13:19.643Z,13.40
2023-01-28T10:16:01.571Z,13.27
2023-01-28T10:18:37.696Z,13.17
2023-01-28T10:21:17.136Z,12.33
2023-01-28T10:23:58.833Z,11.10
2023-01-28T10:26:35.540Z,10.20
2023-01-28T10:29:12.657Z,10.30
2023-01-28T10:31:49.141Z,11.43
2023-01-28T10:34:20.148Z,12.13
2023-01-28T10:36:49.820Z,10.40
2023-01-28T10:39:21.859Z,12.23
2023-01-28T10:41:58.372Z,10.97
2023-01-28T10:44:36.482Z,11.60
2023-01-28T10:47:12.751Z,11.20
2023-01-28T10:49:47.742Z,11.70
2023-01-28T10:52:18.746Z,12.37
2023-01-28T10:54:47.912Z,12.00
2023-01-28T10:57:23.010Z,12.13
2023-01-28T10:59:52.223Z,13.53
2023-01-28T11:02:32.700Z,14.17
2023-01-28T11:05:17.860Z,12.80
2023-01-28T11:07:48.685Z,13.33
2023-01-28T11:10:28.566Z,12.27
2023-01-28T11:13:00.151Z,12.83
2023-01-28T11:15:29.651Z,11.80
2023-01-28T11:18:02.580Z,12.10
2023-01-28T11:20:43.485Z,11.67
2023-01-28T11:23:21.140Z,11.47
2023-01-28T11:25:50.481Z,11.03
2023-01-28T11:28:23.921Z,11.57
2023-01-28T11:30:54.770Z,11.60
2023-01-28T11:33:26.583Z,14.20
2023-01-28T11:35:57.583Z,11.87
2023-01-28T11:38:28.273Z,12.53
2023-01-28T11:40:59.126Z,28.83
2023-01-28T11:43:32.756Z,13.37
2023-01-28T11:46:16.844Z,11.03
2023-01-28T11:48:59.662Z,10.23
2023-01-28T11:51:39.876Z,11.07
2023-01-28T11:54:23.355Z,12.10
2023-01-28T11:57:07.736Z,12.10
2023-01-28T11:59:55.662Z,14.17
2023-01-28T12:02:45.239Z,14.23
2023-01-28T12:05:47.687Z,13.63
2023-01-28T12:08:25.132Z,12.07
2023-01-28T12:11:10.914Z,13.43
2023-01-28T12:13:57.327Z,12.67
2023-01-28T12:16:42.276Z,11.67
2023-01-28T12:19:45.677Z,11.83
2023-01-28T12:22:33.937Z,11.87
2023-01-28T12:25:21.068Z,11.80
2023-01-28T12:27:57.432Z,12.23
2023-01-28T12:30:38.823Z,11.93
2023-01-28T12:33:30.831Z,11.77
2023-01-28T12:36:10.630Z,11.40
2023-01-28T12:38:50.486Z,11.03
2023-01-28T12:41:23.846Z,10.97
2023-01-28T12:44:00.498Z,11.70
2023-01-28T12:46:40.747Z,10.27
2023-01-28T12:49:18.613Z,10.83
2023-01-28T12:51:58.864Z,10.47
2023-01-28T12:54:35.605Z,9.50
2023-01-28T12:57:05.436Z,9.60
2023-01-28T12:59:41.100Z,9.60
2023-01-28T13:02:23.769Z,9.70
2023-01-28T13:05:03.834Z,9.37
2023-01-28T13:07:40.057Z,9.20
2023-01-28T13:10:19.299Z,9.00
2023-01-28T13:12:49.958Z,8.67
2023-01-28T13:15:21.508Z,8.33
2023-01-28T13:17:59.030Z,7.87
2023-01-28T13:20:50.299Z,9.07
2023-01-28T13:23:27.450Z,8.77
2023-01-28T13:25:58.776Z,8.77
2023-01-28T13:28:30.876Z,8.53
2023-01-28T13:31:05.171Z,9.43
2023-01-28T13:33:36.293Z,9.23
2023-01-28T13:36:20.401Z,8.77
2023-01-28T13:38:50.735Z,8.63
2023-01-28T13:41:20.583Z,8.23
2023-01-28T13:43:49.861Z,8.47
2023-01-28T13:46:30.335Z,7.93
2023-01-28T13:49:03.486Z,8.13
2023-01-28T13:51:36.821Z,7.70
2023-01-28T13:54:09.329Z,7.47
2023-01-28T13:56:51.418Z,8.03
2023-01-28T13:59:47.424Z,7.63
2023-01-28T14:02:37.209Z,7.80
2023-01-28T14:05:39.732Z,8.03
2023-01-28T14:08:34.948Z,7.93
2023-01-28T14:11:38.422Z,7.70
2023-01-28T14:14:41.808Z,7.90
2023-01-28T14:17:21.800Z,7.97
2023-01-28T14:19:53.762Z,6.77
2023-01-28T14:22:23.469Z,7.40
2023-01-28T14:24:55.030Z,6.77
2023-01-28T14:27:28.971Z,6.50
2023-01-28T14:30:10.109Z,6.93
2023-01-28T14:32:46.653Z,7.10
2023-01-28T14:35:21.019Z,7.00
2023-01-28T14:37:50.386Z,6.97
2023-01-28T14:40:22.832Z,7.30
2023-01-28T14:42:54.832Z,7.40
2023-01-28T14:45:46.944Z,6.80
2023-01-28T14:48:27.797Z,6.70
2023-01-28T14:51:29.469Z,7.20
2023-01-28T14:54:25.131Z,7.00
2023-01-28T14:57:13.952Z,7.20
2023-01-28T14:59:48.559Z,7.40
2023-01-28T15:02:23.465Z,7.20
2023-01-28T15:04:54.030Z,7.80
2023-01-28T15:07:25.151Z,8.23
2023-01-28T15:10:04.039Z,7.57
2023-01-28T15:12:39.223Z,7.13
2023-01-28T15:15:13.756Z,7.63
2023-01-28T15:17:43.247Z,7.47
2023-01-28T15:20:20.644Z,7.60
2023-01-28T15:22:50.271Z,7.90
2023-01-28T15:25:22.049Z,7.67
2023-01-28T15:27:54.784Z,8.17
2023-01-28T15:30:26.940Z,8.37
2023-01-28T15:33:01.053Z,8.57
2023-01-28T15:35:30.660Z,8.40
2023-01-28T15:37:59.990Z,9.03
2023-01-28T15:40:30.469Z,8.67
2023-01-28T15:43:01.174Z,8.70
2023-01-28T15:45:31.257Z,8.60
2023-01-28T15:48:09.140Z,8.53
2023-01-28T15:50:38.685Z,9.67
2023-01-28T15:53:11.384Z,8.90
2023-01-28T15:55:43.041Z,9.00
2023-01-28T15:58:33.822Z,9.50
2023-01-28T16:01:15.999Z,10.07
2023-01-28T16:03:47.642Z,11.00
2023-01-28T16:06:20.264Z,10.90
2023-01-28T16:08:54.858Z,10.90
2023-01-28T16:11:26.368Z,10.13
2023-01-28T16:13:57.721Z,10.97
2023-01-28T16:16:32.805Z,11.73
2023-01-28T16:19:04.285Z,11.80
2023-01-28T16:21:38.168Z,11.83
2023-01-28T16:24:21.625Z,12.53
2023-01-28T16:26:58.950Z,13.73
2023-01-28T16:29:31.121Z,13.87
2023-01-28T16:32:01.555Z,15.13
2023-01-28T16:34:30.977Z,14.77
2023-01-28T16:37:02.004Z,14.13
2023-01-28T16:39:31.856Z,14.43
2023-01-28T16:42:02.339Z,15.00
2023-01-28T16:44:33.160Z,14.67
2023-01-28T16:47:03.243Z,15.47
2023-01-28T16:49:32.660Z,13.53
2023-01-28T16:52:02.872Z,13.63
2023-01-28T16:54:32.409Z,14.50
2023-01-28T16:57:02.307Z,14.17
2023-01-28T16:59:33.057Z,13.10
2023-01-28T17:02:02.425Z,12.87
2023-01-28T17:04:31.686Z,14.40
2023-01-28T17:07:02.439Z,14.33
2023-01-28T17:09:32.141Z,16.23
2023-01-28T17:12:02.143Z,16.03
2023-01-28T17:14:33.751Z,16.53
2023-01-28T17:17:03.093Z,18.57
2023-01-28T17:19:32.605Z,17.47
2023-01-28T17:22:02.010Z,18.07
2023-01-28T17:24:32.026Z,19.27
2023-01-28T17:27:01.319Z,21.63
2023-01-28T17:29:30.643Z,22.37
2023-01-28T17:32:01.601Z,23.20
2023-01-28T17:34:31.669Z,24.90
2023-01-28T17:37:00.880Z,22.40
2023-01-28T17:39:30.260Z,23.10
2023-01-28T17:42:00.473Z,24.23
2023-01-28T17:44:29.820Z,26.47
2023-01-28T17:47:00.668Z,24.87
2023-01-28T17:49:30.196Z,24.57
2023-01-28T17:51:59.538Z,24.57
2023-01-28T17:54:29.253Z,24.30
2023-01-28T17:56:58.719Z,24.30
2023-01-28T17:59:28.129Z,23.77
2023-01-28T18:01:57.561Z,24.17
2023-01-28T18:04:28.409Z,24.63
2023-01-28T18:06:57.715Z,23.87
2023-01-28T18:09:26.910Z,23.57
2023-01-28T18:11:56.339Z,23.87
2023-01-28T18:14:25.760Z,25.13
2023-01-28T18:16:56.379Z,24.57
2023-01-28T18:19:25.740Z,29.33
2023-01-28T18:21:56.803Z,28.33
2023-01-28T18:24:29.149Z,26.97
2023-01-28T18:27:00.244Z,25.80
2023-01-28T18:29:31.233Z,25.13
2023-01-28T18:32:01.400Z,26.93
2023-01-28T18:34:31.997Z,27.83
2023-01-28T18:37:03.848Z,29.67
2023-01-28T18:39:33.213Z,33.43
2023-01-28T18:42:02.568Z,34.13
2023-01-28T18:44:32.523Z,33.40
2023-01-28T18:47:01.871Z,36.67
2023-01-28T18:49:31.227Z,34.37
2023-01-28T18:52:01.989Z,37.70
2023-01-28T18:54:31.350Z,48.70
2023-01-28T18:57:00.602Z,44.37
2023-01-28T18:59:30.610Z,42.80
2023-01-28T19:02:00.030Z,37.93
2023-01-28T19:04:29.330Z,36.77
2023-01-28T19:06:58.981Z,47.20
2023-01-28T19:09:29.712Z,41.63
2023-01-28T19:11:59.163Z,43.03
2023-01-28T19:14:28.422Z,42.33
2023-01-28T19:16:57.650Z,40.27
2023-01-28T19:19:27.063Z,38.67
2023-01-28T19:21:56.423Z,41.33
2023-01-28T19:24:25.742Z,43.00
2023-01-28T19:26:56.544Z,38.80
2023-01-28T19:29:28.734Z,37.13
2023-01-28T19:31:58.170Z,35.23
2023-01-28T19:34:27.630Z,34.50
2023-01-28T19:36:58.001Z,33.87
2023-01-28T19:39:27.351Z,34.87
2023-01-28T19:41:57.945Z,34.40
2023-01-28T19:44:27.399Z,37.07
2023-01-28T19:46:56.923Z,39.70
2023-01-28T19:49:26.260Z,39.63
2023-01-28T19:51:55.552Z,38.73
2023-01-28T19:54:24.960Z,37.37
2023-01-28T19:56:54.201Z,34.13
2023-01-28T19:59:25.249Z,32.47
2023-01-28T20:01:54.618Z,31.90
2023-01-28T20:04:24.022Z,32.60
2023-01-28T20:06:53.202Z,32.83
2023-01-28T20:09:23.454Z,32.13
2023-01-28T20:11:52.710Z,32.70
2023-01-28T20:14:22.343Z,36.97
2023-01-28T20:16:53.105Z,46.63
2023-01-28T20:19:22.401Z,47.67
2023-01-28T20:21:53.664Z,39.83
2023-01-28T20:24:23.129Z,35.93
2023-01-28T20:26:52.392Z,33.60
2023-01-28T20:29:22.731Z,30.10
2023-01-28T20:32:13.720Z,28.83
2023-01-28T20:34:44.961Z,27.57
2023-01-28T20:37:14.172Z,27.23
2023-01-28T20:39:43.983Z,28.47
2023-01-28T20:42:13.691Z,30.87
2023-01-28T20:44:42.942Z,31.33
2023-01-28T20:47:13.757Z,32.23
2023-01-28T20:49:43.088Z,31.13
2023-01-28T20:52:12.282Z,27.87
2023-01-28T20:54:41.560Z,26.13
2023-01-28T20:57:10.815Z,28.03
2023-01-28T20:59:40.030Z,29.03
2023-01-28T21:02:10.472Z,28.13
2023-01-28T21:04:41.174Z,29.07
2023-01-28T21:07:13.003Z,29.13
2023-01-28T21:09:42.422Z,28.63
2023-01-28T21:12:11.605Z,32.83
2023-01-28T21:14:40.830Z,30.67
2023-01-28T21:17:10.360Z,33.83
2023-01-28T21:19:41.158Z,33.33
2023-01-28T21:22:10.704Z,32.93
2023-01-28T21:24:39.943Z,33.00
2023-01-28T21:27:09.149Z,31.93
2023-01-28T21:29:38.487Z,29.87
2023-01-28T21:32:07.703Z,29.33
2023-01-28T21:34:37.330Z,28.90
2023-01-28T21:37:10.411Z,29.50
2023-01-28T21:39:39.565Z,28.93
2023-01-28T21:42:08.882Z,28.77
2023-01-28T21:44:38.158Z,27.07
2023-01-28T21:47:07.392Z,27.10
2023-01-28T21:49:36.640Z,26.70
2023-01-28T21:52:08.001Z,25.10
2023-01-28T21:54:37.362Z,25.23
2023-01-28T21:57:06.468Z,26.03
2023-01-28T21:59:38.469Z,26.00
2023-01-28T22:02:11.158Z,26.40
2023-01-28T22:04:41.887Z,27.47
2023-01-28T22:07:17.404Z,29.03
2023-01-28T22:09:47.468Z,25.93
2023-01-28T22:12:17.335Z,28.63
2023-01-28T22:14:48.375Z,26.87
2023-01-28T22:17:19.468Z,26.07
2023-01-28T22:19:49.415Z,24.47
2023-01-28T22:22:20.256Z,28.47
2023-01-28T22:24:49.571Z,28.00
2023-01-28T22:27:21.571Z,27.00
2023-01-28T22:29:50.819Z,25.40
2023-01-28T22:32:19.980Z,28.67
2023-01-28T22:34:49.948Z,26.67
2023-01-28T22:37:20.652Z,26.70
2023-01-28T22:39:49.925Z,27.77
2023-01-28T22:42:19.033Z,31.50
2023-01-28T22:44:48.195Z,28.03
2023-01-28T22:47:17.407Z,28.53
2023-01-28T22:49:46.547Z,27.37
2023-01-28T22:52:15.759Z,25.53
2023-01-28T22:54:48.061Z,24.70
2023-01-28T22:57:17.229Z,25.63
2023-01-28T22:59:59.527Z,24.77
2023-01-28T23:02:29.373Z,24.03
2023-01-28T23:04:58.632Z,23.90
2023-01-28T23:07:27.730Z,21.97
2023-01-28T23:09:58.381Z,23.23
2023-01-28T23:12:27.768Z,22.83
2023-01-28T23:15:14.071Z,23.73
2023-01-28T23:18:00.282Z,22.27
2023-01-28T23:20:47.588Z,23.90
2023-01-28T23:23:36.322Z,23.17
2023-01-28T23:26:07.268Z,22.57
2023-01-28T23:28:36.533Z,22.30
2023-01-28T23:31:07.384Z,23.37
2023-01-28T23:33:37.243Z,22.77
2023-01-28T23:36:07.060Z,21.77
2023-01-28T23:38:36.229Z,23.00
2023-01-28T23:41:06.989Z,22.80
2023-01-28T23:43:36.147Z,22.17
2023-01-28T23:46:05.419Z,22.40
2023-01-28T23:48:34.593Z,21.03
2023-01-28T23:51:03.798Z,21.93
2023-01-28T23:53:32.986Z,21.30
2023-01-28T23:56:02.158Z,22.53
2023-01-28T23:58:43.214Z,21.70
